createdAt,value
2023-02-17T00:04:45.521Z,52.47
2023-02-17T00:09:47.723Z,47.72
2023-02-17T00:14:49.988Z,53.72
2023-02-17T00:19:55.017Z,45.22
2023-02-17T00:24:57.343Z,40.40
2023-02-17T00:29:59.494Z,45.63
2023-02-17T00:35:05.758Z,47.78
2023-02-17T00:40:08.608Z,50.13
2023-02-17T00:45:10.980Z,44.30
2023-02-17T00:50:13.182Z,46.63
2023-02-17T00:55:16.465Z,40.03
2023-02-17T01:00:19.264Z,41.75
2023-02-17T01:05:21.891Z,40.92
2023-02-17T01:10:24.555Z,39.17
2023-02-17T01:15:26.949Z,40.55
2023-02-17T01:20:39.392Z,39.90
2023-02-17T01:26:02.174Z,35.72
2023-02-17T01:31:11.547Z,37.55
2023-02-17T01:36:16.144Z,34.63
2023-02-17T01:41:21.390Z,35.47
2023-02-17T01:46:23.787Z,34.92
2023-02-17T01:51:34.133Z,32.88
2023-02-17T01:56:41.788Z,32.80
2023-02-17T02:01:44.574Z,32.38
2023-02-17T02:06:48.109Z,33.72
2023-02-17T02:11:52.011Z,37.05
2023-02-17T02:17:32.749Z,40.08
2023-02-17T02:22:48.478Z,37.97
2023-02-17T02:28:09.049Z,35.67
2023-02-17T02:33:37.294Z,36.40
2023-02-17T02:38:50.886Z,37.05
2023-02-17T02:43:54.271Z,37.25
2023-02-17T02:49:00.796Z,36.78
2023-02-17T02:54:21.805Z,37.63
2023-02-17T02:59:29.431Z,39.60
2023-02-17T03:04:37.118Z,37.85
2023-02-17T03:09:44.895Z,40.25
2023-02-17T03:14:51.049Z,37.58
2023-02-17T03:19:54.589Z,41.28
2023-02-17T03:24:57.244Z,42.78
2023-02-17T03:30:00.519Z,41.83
2023-02-17T03:35:03.357Z,39.22
2023-02-17T03:40:08.384Z,49.28
2023-02-17T03:45:10.750Z,44.67
2023-02-17T03:50:12.954Z,44.15
2023-02-17T03:55:15.160Z,52.75
2023-02-17T04:00:17.775Z,54.28
2023-02-17T04:05:19.988Z,56.47
2023-02-17T04:10:22.587Z,55.75
2023-02-17T04:15:24.915Z,57.92
2023-02-17T04:20:27.557Z,55.00
2023-02-17T04:25:29.693Z,52.45
2023-02-17T04:30:35.819Z,50.55
2023-02-17T04:35:38.249Z,50.75
2023-02-17T04:40:41.198Z,50.45
2023-02-17T04:45:46.326Z,51.47
2023-02-17T04:50:48.834Z,50.65
2023-02-17T04:55:53.022Z,51.08
2023-02-17T05:00:58.401Z,52.90
2023-02-17T05:06:00.631Z,50.88
2023-02-17T05:11:02.872Z,53.15
2023-02-17T05:16:05.621Z,42.75
2023-02-17T05:21:08.166Z,50.15
2023-02-17T05:26:10.794Z,50.55
2023-02-17T05:31:13.148Z,49.17
2023-02-17T05:36:15.541Z,49.40
2023-02-17T05:41:18.182Z,54.22
2023-02-17T05:46:20.316Z,50.08
2023-02-17T05:51:22.725Z,39.63
2023-02-17T05:56:25.012Z,45.00
2023-02-17T06:01:27.745Z,44.72
2023-02-17T06:06:29.934Z,41.65
2023-02-17T06:11:32.190Z,43.22
2023-02-17T06:16:34.314Z,38.30
2023-02-17T06:21:36.745Z,41.60
2023-02-17T06:26:38.849Z,55.97
2023-02-17T06:31:41.220Z,36.63
2023-02-17T06:36:43.327Z,40.38
2023-02-17T06:41:45.678Z,40.53
2023-02-17T06:46:47.857Z,41.03
2023-02-17T06:51:49.969Z,39.70
2023-02-17T06:56:52.152Z,37.35
2023-02-17T07:01:54.601Z,36.22
2023-02-17T07:06:57.036Z,34.40
2023-02-17T07:11:59.146Z,34.08
2023-02-17T07:17:01.576Z,31.55
2023-02-17T07:22:03.831Z,29.23
2023-02-17T07:27:08.515Z,31.08
2023-02-17T07:32:11.956Z,29.42
2023-02-17T07:37:14.069Z,28.05
2023-02-17T07:42:16.159Z,34.28
2023-02-17T07:47:18.790Z,34.05
2023-02-17T07:52:20.919Z,33.88
2023-02-17T07:57:23.022Z,38.97
2023-02-17T08:02:25.121Z,42.50
2023-02-17T08:07:27.386Z,39.65
2023-02-17T08:12:48.137Z,45.55
2023-02-17T08:17:51.170Z,49.72
2023-02-17T08:22:53.600Z,48.25
2023-02-17T08:27:55.780Z,51.22
2023-02-17T08:32:58.067Z,55.65
2023-02-17T08:38:00.378Z,86.20
2023-02-17T08:43:03.673Z,57.40
2023-02-17T08:48:06.229Z,52.53
2023-02-17T08:53:08.772Z,55.60
2023-02-17T08:58:10.881Z,50.03
2023-02-17T09:03:13.108Z,49.53
2023-02-17T09:08:15.508Z,54.05
2023-02-17T09:13:19.094Z,50.95
2023-02-17T09:18:21.844Z,51.50
2023-02-17T09:23:24.197Z,40.47
2023-02-17T09:28:26.382Z,44.75
2023-02-17T09:33:28.550Z,42.63
2023-02-17T09:38:30.782Z,42.13
2023-02-17T09:43:33.777Z,48.00
2023-02-17T09:48:36.870Z,39.90
2023-02-17T09:53:51.487Z,44.40
2023-02-17T09:58:57.372Z,41.10
2023-02-17T10:04:11.929Z,36.45
2023-02-17T10:09:27.899Z,35.85
2023-02-17T10:14:38.339Z,39.22
2023-02-17T10:20:02.806Z,33.60
2023-02-17T10:25:16.715Z,31.90
2023-02-17T10:30:54.142Z,31.23
2023-02-17T10:36:09.548Z,31.92
2023-02-17T10:41:15.909Z,33.55
2023-02-17T10:46:22.043Z,32.97
2023-02-17T10:51:28.698Z,27.17
2023-02-17T10:56:45.420Z,28.25
2023-02-17T11:01:48.854Z,26.48
2023-02-17T11:06:55.146Z,19.67
2023-02-17T11:12:11.775Z,24.95
2023-02-17T11:17:25.678Z,27.13
2023-02-17T11:22:36.202Z,21.17
2023-02-17T11:27:38.484Z,22.23
2023-02-17T11:32:40.640Z,20.35
2023-02-17T11:37:43.427Z,22.27
2023-02-17T11:43:00.151Z,25.08
2023-02-17T11:48:05.615Z,20.08
2023-02-17T11:53:35.488Z,21.85
2023-02-17T11:58:55.068Z,27.30
2023-02-17T12:04:28.038Z,19.35
2023-02-17T12:09:58.298Z,22.92
2023-02-17T12:15:46.028Z,17.08
2023-02-17T12:21:36.726Z,19.02
2023-02-17T12:26:51.325Z,21.45
2023-02-17T12:32:18.604Z,13.23
2023-02-17T12:37:31.831Z,18.65
2023-02-17T12:42:41.995Z,16.23
2023-02-17T12:48:15.020Z,17.33
2023-02-17T12:53:44.145Z,14.75
2023-02-17T12:58:47.077Z,12.27
2023-02-17T13:03:51.374Z,15.82
2023-02-17T13:09:03.212Z,17.42
2023-02-17T13:14:26.999Z,10.43
2023-02-17T13:19:32.039Z,13.15
2023-02-17T13:24:45.993Z,11.90
2023-02-17T13:30:24.756Z,12.20
2023-02-17T13:35:27.432Z,8.13
2023-02-17T13:40:30.685Z,11.57
2023-02-17T13:45:45.219Z,12.15
2023-02-17T13:51:09.927Z,11.13
2023-02-17T13:56:35.891Z,9.93
2023-02-17T14:01:42.411Z,10.27
2023-02-17T14:06:45.576Z,10.63
2023-02-17T14:11:48.348Z,10.02
2023-02-17T14:17:23.308Z,7.55
2023-02-17T14:22:33.380Z,8.23
2023-02-17T14:33:22.201Z,7.90
2023-02-17T14:38:36.864Z,10.00
2023-02-17T14:43:40.482Z,8.32
2023-02-17T14:48:43.027Z,9.30
2023-02-17T14:53:46.510Z,9.98
2023-02-17T14:58:49.856Z,8.52
2023-02-17T15:03:54.282Z,8.43
2023-02-17T15:08:59.821Z,8.70
2023-02-17T15:14:03.240Z,9.10
2023-02-17T15:19:06.549Z,9.63
2023-02-17T15:24:26.472Z,10.00
2023-02-17T15:29:43.054Z,8.88
2023-02-17T15:34:51.996Z,7.97
2023-02-17T15:39:55.308Z,10.25
2023-02-17T15:45:00.823Z,14.93
2023-02-17T15:50:03.569Z,13.38
2023-02-17T15:55:09.642Z,12.43
2023-02-17T16:00:28.955Z,13.80
2023-02-17T16:05:39.304Z,11.35
2023-02-17T16:10:56.476Z,15.73
2023-02-17T16:16:57.083Z,12.88
2023-02-17T16:21:37.266Z,12.40
2023-02-17T16:26:43.443Z,11.73
2023-02-17T16:31:47.427Z,13.20
2023-02-17T16:36:59.107Z,9.45
2023-02-17T16:42:05.186Z,15.77
2023-02-17T16:47:17.177Z,15.20
2023-02-17T16:52:26.432Z,14.65
2023-02-17T16:57:31.089Z,13.32
2023-02-17T17:07:44.296Z,19.65
2023-02-17T17:12:47.131Z,21.20
2023-02-17T17:18:15.614Z,13.77
2023-02-17T17:23:22.244Z,13.85
2023-02-17T17:28:40.257Z,13.32
2023-02-17T17:33:43.184Z,15.63
2023-02-17T17:45:28.827Z,13.27
2023-02-17T17:51:34.094Z,17.27
2023-02-17T17:56:39.959Z,19.52
2023-02-17T18:01:46.169Z,12.10
2023-02-17T18:06:51.957Z,16.13
2023-02-17T18:11:55.943Z,14.95
2023-02-17T18:17:10.043Z,16.48
2023-02-17T18:28:14.596Z,18.75
2023-02-17T18:33:39.420Z,15.23
2023-02-17T18:38:43.356Z,17.75
2023-02-17T18:43:49.397Z,20.95
2023-02-17T18:49:21.331Z,17.10
2023-02-17T18:54:24.075Z,13.05
2023-02-17T18:59:27.282Z,19.75
2023-02-17T19:04:30.023Z,19.17
2023-02-17T19:09:38.756Z,12.80
2023-02-17T19:14:41.994Z,18.55
2023-02-17T19:19:44.877Z,20.42
2023-02-17T19:24:54.135Z,20.35
2023-02-17T19:29:59.758Z,18.10
2023-02-17T19:35:02.483Z,15.95
2023-02-17T19:40:11.739Z,15.70
2023-02-17T19:45:23.084Z,16.42
2023-02-17T19:50:27.014Z,17.13
2023-02-17T19:55:29.767Z,19.85
2023-02-17T20:00:35.740Z,14.18
2023-02-17T20:05:42.283Z,16.75
2023-02-17T20:10:48.434Z,17.70
2023-02-17T20:16:02.098Z,12.73
2023-02-17T20:21:06.243Z,20.10
2023-02-17T20:26:13.086Z,17.88
2023-02-17T20:31:16.115Z,18.10
2023-02-17T20:36:19.194Z,20.08
2023-02-17T20:41:23.478Z,14.93
2023-02-17T20:46:27.946Z,17.60
2023-02-17T20:51:30.639Z,19.23
2023-02-17T20:56:37.785Z,16.52
2023-02-17T21:01:41.702Z,15.95
2023-02-17T21:06:45.715Z,20.08
2023-02-17T21:11:48.270Z,16.30
2023-02-17T21:16:51.269Z,15.85
2023-02-17T21:21:53.967Z,17.70
2023-02-17T21:26:56.509Z,15.98
2023-02-17T21:31:59.354Z,17.92
2023-02-17T21:37:02.040Z,17.05
2023-02-17T21:42:04.855Z,15.30
2023-02-17T21:47:07.493Z,12.73
2023-02-17T21:52:15.537Z,17.90
2023-02-17T21:57:18.255Z,11.05
2023-02-17T22:02:20.847Z,15.77
2023-02-17T22:07:23.585Z,17.98
2023-02-17T22:12:29.189Z,15.95
2023-02-17T22:17:32.185Z,16.17
2023-02-17T22:22:34.621Z,12.50
2023-02-17T22:27:36.991Z,15.52
2023-02-17T22:32:40.491Z,20.85
2023-02-17T22:37:46.390Z,17.45
2023-02-17T22:42:48.962Z,18.42
2023-02-17T22:47:53.468Z,18.27
2023-02-17T22:52:56.221Z,15.27
2023-02-17T22:57:59.027Z,14.32
2023-02-17T23:03:01.645Z,13.73
2023-02-17T23:08:04.624Z,18.85
2023-02-17T23:13:08.140Z,17.77
2023-02-17T23:18:13.499Z,15.18
2023-02-17T23:23:17.001Z,15.20
2023-02-17T23:28:29.027Z,18.08
2023-02-17T23:33:31.619Z,14.90
2023-02-17T23:38:34.730Z,11.32
2023-02-17T23:43:47.359Z,14.43
2023-02-17T23:48:50.058Z,18.48
2023-02-17T23:53:53.057Z,13.73
2023-02-17T23:58:59.648Z,15.30
